sensor_id;sensor_type;location;lat;lon;timestamp;pressure;altitude;pressure_sealevel;temperature;humidity
19286;BME280;9776;50.798;6.430;2023-12-20T00:01:33;100176.47;;;9.16;80.34
19286;BME280;9776;50.798;6.430;2023-12-20T00:03:59;100171.59;;;9.21;80.31
19286;BME280;9776;50.798;6.430;2023-12-20T00:06:26;100174.13;;;9.22;80.44
19286;BME280;9776;50.798;6.430;2023-12-20T00:08:53;100174.13;;;9.22;80.26
19286;BME280;9776;50.798;6.430;2023-12-20T00:11:21;100180.63;;;9.18;80.69
19286;BME280;9776;50.798;6.430;2023-12-20T00:13:47;100185.09;;;9.18;80.35
19286;BME280;9776;50.798;6.430;2023-12-20T00:16:14;100179.13;;;9.16;80.48
19286;BME280;9776;50.798;6.430;2023-12-20T00:18:41;100187.47;;;9.11;80.60
19286;BME280;9776;50.798;6.430;2023-12-20T00:21:07;100190.50;;;9.06;81.03
19286;BME280;9776;50.798;6.430;2023-12-20T00:23:34;100185.81;;;9.00;80.83
19286;BME280;9776;50.798;6.430;2023-12-20T00:26:00;100187.22;;;8.95;81.13
19286;BME280;9776;50.798;6.430;2023-12-20T00:28:29;100189.31;;;8.91;81.06
19286;BME280;9776;50.798;6.430;2023-12-20T00:30:55;100190.41;;;8.89;81.22
19286;BME280;9776;50.798;6.430;2023-12-20T00:33:22;100184.63;;;8.85;81.30
19286;BME280;9776;50.798;6.430;2023-12-20T00:35:48;100186.53;;;8.83;81.35
19286;BME280;9776;50.798;6.430;2023-12-20T00:38:18;100185.75;;;8.83;81.39
19286;BME280;9776;50.798;6.430;2023-12-20T00:40:45;100188.50;;;8.81;81.52
19286;BME280;9776;50.798;6.430;2023-12-20T00:43:11;100192.78;;;8.82;81.45
19286;BME280;9776;50.798;6.430;2023-12-20T00:45:39;100200.69;;;8.82;81.32
19286;BME280;9776;50.798;6.430;2023-12-20T00:48:06;100195.84;;;8.78;81.47
19286;BME280;9776;50.798;6.430;2023-12-20T00:50:33;100196.00;;;8.76;81.49
19286;BME280;9776;50.798;6.430;2023-12-20T00:53:00;100199.59;;;8.75;81.60
19286;BME280;9776;50.798;6.430;2023-12-20T00:55:28;100212.63;;;8.77;81.27
19286;BME280;9776;50.798;6.430;2023-12-20T00:57:55;100218.72;;;8.77;81.53
19286;BME280;9776;50.798;6.430;2023-12-20T01:00:22;100208.19;;;8.77;81.23
19286;BME280;9776;50.798;6.430;2023-12-20T01:02:50;100212.34;;;8.70;81.41
19286;BME280;9776;50.798;6.430;2023-12-20T01:05:17;100216.75;;;8.60;81.70
19286;BME280;9776;50.798;6.430;2023-12-20T01:07:44;100229.66;;;8.53;81.76
19286;BME280;9776;50.798;6.430;2023-12-20T01:10:11;100221.47;;;8.47;81.89
19286;BME280;9776;50.798;6.430;2023-12-20T01:12:38;100214.81;;;8.43;81.80
19286;BME280;9776;50.798;6.430;2023-12-20T01:15:05;100221.47;;;8.47;81.98
19286;BME280;9776;50.798;6.430;2023-12-20T01:17:32;100228.41;;;8.48;81.70
19286;BME280;9776;50.798;6.430;2023-12-20T01:20:00;100228.25;;;8.49;81.88
19286;BME280;9776;50.798;6.430;2023-12-20T01:22:27;100226.47;;;8.50;81.77
19286;BME280;9776;50.798;6.430;2023-12-20T01:24:53;100221.91;;;8.52;81.54
19286;BME280;9776;50.798;6.430;2023-12-20T01:27:20;100243.22;;;8.49;81.63
19286;BME280;9776;50.798;6.430;2023-12-20T01:29:46;100236.31;;;8.48;81.45
19286;BME280;9776;50.798;6.430;2023-12-20T01:32:13;100240.03;;;8.36;81.20
19286;BME280;9776;50.798;6.430;2023-12-20T01:34:40;100256.16;;;8.12;81.10
19286;BME280;9776;50.798;6.430;2023-12-20T01:37:08;100263.75;;;7.96;80.92
19286;BME280;9776;50.798;6.430;2023-12-20T01:39:34;100271.44;;;7.88;81.04
19286;BME280;9776;50.798;6.430;2023-12-20T01:42:01;100273.06;;;7.79;80.74
19286;BME280;9776;50.798;6.430;2023-12-20T01:44:27;100272.91;;;7.71;80.70
19286;BME280;9776;50.798;6.430;2023-12-20T01:46:54;100269.97;;;7.65;80.68
19286;BME280;9776;50.798;6.430;2023-12-20T01:49:21;100275.88;;;7.57;80.58
19286;BME280;9776;50.798;6.430;2023-12-20T01:51:48;100287.06;;;7.50;80.69
19286;BME280;9776;50.798;6.430;2023-12-20T01:54:17;100287.59;;;7.43;80.67
19286;BME280;9776;50.798;6.430;2023-12-20T01:56:48;100289.19;;;7.35;80.63
19286;BME280;9776;50.798;6.430;2023-12-20T01:59:16;100289.44;;;7.32;80.50
19286;BME280;9776;50.798;6.430;2023-12-20T02:01:44;100298.53;;;7.28;80.33
19286;BME280;9776;50.798;6.430;2023-12-20T02:04:11;100296.88;;;7.27;80.32
19286;BME280;9776;50.798;6.430;2023-12-20T02:06:40;100297.66;;;7.38;79.83
19286;BME280;9776;50.798;6.430;2023-12-20T02:09:09;100291.84;;;7.44;79.82
19286;BME280;9776;50.798;6.430;2023-12-20T02:11:37;100287.34;;;7.56;79.37
19286;BME280;9776;50.798;6.430;2023-12-20T02:14:04;100278.00;;;7.63;79.16
19286;BME280;9776;50.798;6.430;2023-12-20T02:16:31;100285.19;;;7.71;78.80
19286;BME280;9776;50.798;6.430;2023-12-20T02:18:57;100296.28;;;7.74;78.60
19286;BME280;9776;50.798;6.430;2023-12-20T02:21:32;100293.41;;;7.77;78.47
19286;BME280;9776;50.798;6.430;2023-12-20T02:23:59;100292.19;;;7.81;78.38
19286;BME280;9776;50.798;6.430;2023-12-20T02:26:25;100291.75;;;7.86;78.06
19286;BME280;9776;50.798;6.430;2023-12-20T02:28:52;100283.19;;;7.84;78.18
19286;BME280;9776;50.798;6.430;2023-12-20T02:31:20;100288.44;;;7.84;78.07
19286;BME280;9776;50.798;6.430;2023-12-20T02:33:47;100300.91;;;7.82;78.01
19286;BME280;9776;50.798;6.430;2023-12-20T02:36:17;100304.59;;;7.79;78.23
19286;BME280;9776;50.798;6.430;2023-12-20T02:38:45;100300.06;;;7.81;78.15
19286;BME280;9776;50.798;6.430;2023-12-20T02:41:12;100296.59;;;7.81;78.12
19286;BME280;9776;50.798;6.430;2023-12-20T02:43:39;100293.81;;;7.82;77.92
19286;BME280;9776;50.798;6.430;2023-12-20T02:46:06;100292.03;;;7.83;77.92
19286;BME280;9776;50.798;6.430;2023-12-20T02:48:32;100287.63;;;7.83;77.84
19286;BME280;9776;50.798;6.430;2023-12-20T02:50:59;100288.03;;;7.88;77.62
19286;BME280;9776;50.798;6.430;2023-12-20T02:53:29;100284.47;;;7.89;77.40
19286;BME280;9776;50.798;6.430;2023-12-20T02:55:57;100294.66;;;7.83;77.80
19286;BME280;9776;50.798;6.430;2023-12-20T02:58:23;100294.13;;;7.89;77.67
19286;BME280;9776;50.798;6.430;2023-12-20T03:00:50;100299.13;;;7.92;77.46
19286;BME280;9776;50.798;6.430;2023-12-20T03:03:17;100298.44;;;7.90;77.46
19286;BME280;9776;50.798;6.430;2023-12-20T03:05:45;100299.69;;;7.95;77.31
19286;BME280;9776;50.798;6.430;2023-12-20T03:08:12;100296.75;;;7.89;77.20
19286;BME280;9776;50.798;6.430;2023-12-20T03:10:38;100295.66;;;7.91;77.20
19286;BME280;9776;50.798;6.430;2023-12-20T03:13:07;100289.28;;;7.84;77.01
19286;BME280;9776;50.798;6.430;2023-12-20T03:15:33;100283.56;;;7.79;77.36
19286;BME280;9776;50.798;6.430;2023-12-20T03:18:00;100286.91;;;7.81;77.14
19286;BME280;9776;50.798;6.430;2023-12-20T03:20:27;100287.75;;;7.82;77.24
19286;BME280;9776;50.798;6.430;2023-12-20T03:22:53;100281.41;;;7.84;77.08
19286;BME280;9776;50.798;6.430;2023-12-20T03:25:20;100292.75;;;7.85;77.13
19286;BME280;9776;50.798;6.430;2023-12-20T03:27:47;100299.06;;;7.82;76.97
19286;BME280;9776;50.798;6.430;2023-12-20T03:30:15;100293.00;;;7.82;76.92
19286;BME280;9776;50.798;6.430;2023-12-20T03:32:41;100286.34;;;7.78;77.30
19286;BME280;9776;50.798;6.430;2023-12-20T03:35:08;100289.94;;;7.77;76.97
19286;BME280;9776;50.798;6.430;2023-12-20T03:37:35;100288.13;;;7.77;77.03
19286;BME280;9776;50.798;6.430;2023-12-20T03:40:02;100288.13;;;7.77;76.97
19286;BME280;9776;50.798;6.430;2023-12-20T03:42:29;100287.19;;;7.78;76.83
19286;BME280;9776;50.798;6.430;2023-12-20T03:44:56;100279.31;;;7.78;76.81
19286;BME280;9776;50.798;6.430;2023-12-20T03:47:26;100282.78;;;7.79;76.43
19286;BME280;9776;50.798;6.430;2023-12-20T03:49:54;100285.50;;;7.77;76.78
19286;BME280;9776;50.798;6.430;2023-12-20T03:52:21;100286.34;;;7.78;76.82
19286;BME280;9776;50.798;6.430;2023-12-20T03:54:50;100280.53;;;7.74;76.62
19286;BME280;9776;50.798;6.430;2023-12-20T03:57:16;100281.03;;;7.68;76.77
19286;BME280;9776;50.798;6.430;2023-12-20T03:59:43;100267.47;;;7.63;76.76
19286;BME280;9776;50.798;6.430;2023-12-20T04:02:10;100257.38;;;7.59;76.68
19286;BME280;9776;50.798;6.430;2023-12-20T04:04:38;100254.31;;;7.54;76.80
19286;BME280;9776;50.798;6.430;2023-12-20T04:07:04;100268.09;;;7.46;76.79
19286;BME280;9776;50.798;6.430;2023-12-20T04:09:31;100272.44;;;7.36;77.10
19286;BME280;9776;50.798;6.430;2023-12-20T04:11:59;100273.44;;;7.35;76.88
19286;BME280;9776;50.798;6.430;2023-12-20T04:14:26;100268.44;;;7.32;77.09
19286;BME280;9776;50.798;6.430;2023-12-20T04:16:56;100257.94;;;7.32;77.05
19286;BME280;9776;50.798;6.430;2023-12-20T04:19:22;100259.31;;;7.36;76.73
19286;BME280;9776;50.798;6.430;2023-12-20T04:21:50;100259.63;;;7.33;76.69
19286;BME280;9776;50.798;6.430;2023-12-20T04:24:17;100262.34;;;7.31;76.71
19286;BME280;9776;50.798;6.430;2023-12-20T04:26:44;100278.09;;;7.31;76.67
19286;BME280;9776;50.798;6.430;2023-12-20T04:29:10;100271.59;;;7.26;76.69
19286;BME280;9776;50.798;6.430;2023-12-20T04:31:37;100265.19;;;7.19;76.87
19286;BME280;9776;50.798;6.430;2023-12-20T04:34:03;100268.78;;;7.18;76.88
19286;BME280;9776;50.798;6.430;2023-12-20T04:36:30;100270.69;;;7.16;76.84
19286;BME280;9776;50.798;6.430;2023-12-20T04:38:58;100276.50;;;7.19;76.77
19286;BME280;9776;50.798;6.430;2023-12-20T04:41:26;100265.31;;;7.17;76.85
19286;BME280;9776;50.798;6.430;2023-12-20T04:43:53;100262.81;;;7.16;77.01
19286;BME280;9776;50.798;6.430;2023-12-20T04:46:19;100271.91;;;7.12;77.01
19286;BME280;9776;50.798;6.430;2023-12-20T04:48:46;100282.41;;;7.12;76.97
19286;BME280;9776;50.798;6.430;2023-12-20T04:51:12;100281.00;;;7.08;76.91
19286;BME280;9776;50.798;6.430;2023-12-20T04:53:39;100283.19;;;7.03;76.94
19286;BME280;9776;50.798;6.430;2023-12-20T04:56:08;100279.88;;;7.01;77.11
19286;BME280;9776;50.798;6.430;2023-12-20T04:58:34;100277.94;;;7.03;76.84
19286;BME280;9776;50.798;6.430;2023-12-20T05:01:03;100285.41;;;7.07;76.74
19286;BME280;9776;50.798;6.430;2023-12-20T05:03:32;100282.41;;;7.12;76.78
19286;BME280;9776;50.798;6.430;2023-12-20T05:05:58;100290.03;;;7.15;76.58
19286;BME280;9776;50.798;6.430;2023-12-20T05:08:25;100291.56;;;7.17;76.73
19286;BME280;9776;50.798;6.430;2023-12-20T05:10:53;100285.47;;;7.17;76.59
19286;BME280;9776;50.798;6.430;2023-12-20T05:13:21;100284.53;;;7.18;76.57
19286;BME280;9776;50.798;6.430;2023-12-20T05:15:48;100284.66;;;7.16;76.72
19286;BME280;9776;50.798;6.430;2023-12-20T05:18:15;100290.72;;;7.17;76.60
19286;BME280;9776;50.798;6.430;2023-12-20T05:20:41;100294.19;;;7.17;76.51
19286;BME280;9776;50.798;6.430;2023-12-20T05:23:08;100293.34;;;7.17;76.66
19286;BME280;9776;50.798;6.430;2023-12-20T05:25:35;100289.53;;;7.21;76.62
19286;BME280;9776;50.798;6.430;2023-12-20T05:28:01;100290.81;;;7.26;76.48
19286;BME280;9776;50.798;6.430;2023-12-20T05:30:29;100284.47;;;7.29;76.48
19286;BME280;9776;50.798;6.430;2023-12-20T05:32:56;100283.34;;;7.31;76.39
19286;BME280;9776;50.798;6.430;2023-12-20T05:35:23;100273.44;;;7.35;76.36
19286;BME280;9776;50.798;6.430;2023-12-20T05:37:49;100271.50;;;7.37;76.40
19286;BME280;9776;50.798;6.430;2023-12-20T05:40:16;100280.06;;;7.39;76.36
19286;BME280;9776;50.798;6.430;2023-12-20T05:42:43;100274.03;;;7.38;76.51
19286;BME280;9776;50.798;6.430;2023-12-20T05:45:09;100282.59;;;7.40;76.45
19286;BME280;9776;50.798;6.430;2023-12-20T05:47:37;100283.44;;;7.41;76.39
19286;BME280;9776;50.798;6.430;2023-12-20T05:50:05;100278.16;;;7.41;76.41
19286;BME280;9776;50.798;6.430;2023-12-20T05:52:32;100274.13;;;7.37;76.36
19286;BME280;9776;50.798;6.430;2023-12-20T05:54:58;100278.94;;;7.32;76.70
19286;BME280;9776;50.798;6.430;2023-12-20T05:57:26;100279.47;;;7.26;76.56
19286;BME280;9776;50.798;6.430;2023-12-20T05:59:53;100283.63;;;7.28;76.82
19286;BME280;9776;50.798;6.430;2023-12-20T06:02:19;100281.56;;;7.32;76.70
19286;BME280;9776;50.798;6.430;2023-12-20T06:04:48;100293.47;;;7.36;76.35
19286;BME280;9776;50.798;6.430;2023-12-20T06:07:16;100295.81;;;7.39;76.47
19286;BME280;9776;50.798;6.430;2023-12-20T06:09:43;100294.19;;;7.38;76.24
19286;BME280;9776;50.798;6.430;2023-12-20T06:12:10;100290.84;;;7.36;76.44
19286;BME280;9776;50.798;6.430;2023-12-20T06:14:37;100290.03;;;7.35;76.35
19286;BME280;9776;50.798;6.430;2023-12-20T06:17:03;100299.28;;;7.39;76.38
19286;BME280;9776;50.798;6.430;2023-12-20T06:19:30;100300.81;;;7.42;76.38
19286;BME280;9776;50.798;6.430;2023-12-20T06:21:58;100303.34;;;7.43;76.21
19286;BME280;9776;50.798;6.430;2023-12-20T06:24:24;100303.91;;;7.47;76.18
19286;BME280;9776;50.798;6.430;2023-12-20T06:26:53;100306.41;;;7.49;76.11
19286;BME280;9776;50.798;6.430;2023-12-20T06:29:20;100306.81;;;7.44;75.98
19286;BME280;9776;50.798;6.430;2023-12-20T06:31:47;100318.25;;;7.43;76.18
19286;BME280;9776;50.798;6.430;2023-12-20T06:34:13;100316.84;;;7.39;76.00
19286;BME280;9776;50.798;6.430;2023-12-20T06:36:40;100319.28;;;7.31;76.26
19286;BME280;9776;50.798;6.430;2023-12-20T06:39:08;100331.00;;;7.27;76.11
19286;BME280;9776;50.798;6.430;2023-12-20T06:41:37;100323.13;;;7.27;76.13
19286;BME280;9776;50.798;6.430;2023-12-20T06:44:04;100332.41;;;7.31;76.03
19286;BME280;9776;50.798;6.430;2023-12-20T06:46:31;100324.28;;;7.34;75.93
19286;BME280;9776;50.798;6.430;2023-12-20T06:48:58;100309.63;;;7.31;75.97
19286;BME280;9776;50.798;6.430;2023-12-20T06:51:24;100315.44;;;7.35;75.90
19286;BME280;9776;50.798;6.430;2023-12-20T06:53:51;100299.69;;;7.35;75.70
19286;BME280;9776;50.798;6.430;2023-12-20T06:56:19;100301.34;;;7.36;75.92
19286;BME280;9776;50.798;6.430;2023-12-20T06:58:46;100312.13;;;7.33;75.91
19286;BME280;9776;50.798;6.430;2023-12-20T07:01:13;100317.38;;;7.33;75.61
19286;BME280;9776;50.798;6.430;2023-12-20T07:03:40;100312.81;;;7.35;75.55
19286;BME280;9776;50.798;6.430;2023-12-20T07:06:07;100310.88;;;7.37;75.63
19286;BME280;9776;50.798;6.430;2023-12-20T07:08:34;100312.41;;;7.39;75.34
19286;BME280;9776;50.798;6.430;2023-12-20T07:11:01;100316.84;;;7.39;75.37
19286;BME280;9776;50.798;6.430;2023-12-20T07:13:31;100314.53;;;7.46;75.17
19286;BME280;9776;50.798;6.430;2023-12-20T07:15:57;100310.69;;;7.50;75.28
19286;BME280;9776;50.798;6.430;2023-12-20T07:18:24;100308.66;;;7.53;75.03
19286;BME280;9776;50.798;6.430;2023-12-20T07:20:51;100309.59;;;7.52;75.23
19286;BME280;9776;50.798;6.430;2023-12-20T07:23:19;100309.47;;;7.54;75.09
19286;BME280;9776;50.798;6.430;2023-12-20T07:25:46;100307.81;;;7.53;74.95
19286;BME280;9776;50.798;6.430;2023-12-20T07:28:13;100311.38;;;7.52;74.87
19286;BME280;9776;50.798;6.430;2023-12-20T07:30:41;100315.22;;;7.48;75.07
19286;BME280;9776;50.798;6.430;2023-12-20T07:33:08;100304.19;;;7.44;74.93
19286;BME280;9776;50.798;6.430;2023-12-20T07:35:35;100311.22;;;7.43;75.10
19286;BME280;9776;50.798;6.430;2023-12-20T07:38:02;100313.41;;;7.38;75.06
19286;BME280;9776;50.798;6.430;2023-12-20T07:40:32;100309.63;;;7.31;75.04
19286;BME280;9776;50.798;6.430;2023-12-20T07:42:58;100306.91;;;7.22;75.10
19286;BME280;9776;50.798;6.430;2023-12-20T07:45:25;100302.91;;;7.18;75.17
19286;BME280;9776;50.798;6.430;2023-12-20T07:47:53;100303.41;;;7.12;75.20
19286;BME280;9776;50.798;6.430;2023-12-20T07:50:20;100304.75;;;7.06;75.38
19286;BME280;9776;50.798;6.430;2023-12-20T07:52:46;100309.41;;;7.03;75.28
19286;BME280;9776;50.798;6.430;2023-12-20T07:55:13;100314.47;;;6.95;75.47
19286;BME280;9776;50.798;6.430;2023-12-20T07:57:40;100305.78;;;6.94;75.41
19286;BME280;9776;50.798;6.430;2023-12-20T08:00:07;100312.09;;;6.92;75.50
19286;BME280;9776;50.798;6.430;2023-12-20T08:02:34;100300.19;;;6.88;75.62
19286;BME280;9776;50.798;6.430;2023-12-20T08:05:03;100289.09;;;6.84;75.59
19286;BME280;9776;50.798;6.430;2023-12-20T08:07:29;100297.63;;;6.76;75.75
19286;BME280;9776;50.798;6.430;2023-12-20T08:09:56;100313.25;;;6.78;75.69
19286;BME280;9776;50.798;6.430;2023-12-20T08:12:23;100311.44;;;6.78;75.60
19286;BME280;9776;50.798;6.430;2023-12-20T08:14:52;100307.16;;;6.77;75.40
19286;BME280;9776;50.798;6.430;2023-12-20T08:17:19;100299.16;;;6.79;75.41
19286;BME280;9776;50.798;6.430;2023-12-20T08:19:46;100301.53;;;6.82;75.48
19286;BME280;9776;50.798;6.430;2023-12-20T08:22:14;100301.53;;;6.82;75.43
19286;BME280;9776;50.798;6.430;2023-12-20T08:24:40;100302.63;;;6.79;75.45
19286;BME280;9776;50.798;6.430;2023-12-20T08:27:07;100305.13;;;6.81;75.38
19286;BME280;9776;50.798;6.430;2023-12-20T08:29:34;100301.41;;;6.83;75.30
19286;BME280;9776;50.798;6.430;2023-12-20T08:32:04;100302.13;;;6.85;74.95
19286;BME280;9776;50.798;6.430;2023-12-20T08:34:31;100299.25;;;6.89;75.04
19286;BME280;9776;50.798;6.430;2023-12-20T08:36:57;100303.53;;;6.90;75.02
19286;BME280;9776;50.798;6.430;2023-12-20T08:39:25;100303.53;;;6.90;74.90
19286;BME280;9776;50.798;6.430;2023-12-20T08:41:52;100307.13;;;6.89;74.85
19286;BME280;9776;50.798;6.430;2023-12-20T08:44:19;100314.34;;;6.96;74.79
19286;BME280;9776;50.798;6.430;2023-12-20T08:46:47;100302.97;;;7.07;74.54
19286;BME280;9776;50.798;6.430;2023-12-20T08:49:14;100314.50;;;7.15;74.52
19286;BME280;9776;50.798;6.430;2023-12-20T08:51:41;100302.41;;;7.24;74.27
19286;BME280;9776;50.798;6.430;2023-12-20T08:54:08;100309.22;;;7.36;74.01
19286;BME280;9776;50.798;6.430;2023-12-20T08:56:36;100310.69;;;7.50;73.83
19286;BME280;9776;50.798;6.430;2023-12-20T08:59:02;100319.69;;;7.57;73.81
19286;BME280;9776;50.798;6.430;2023-12-20T09:01:29;100318.91;;;7.66;73.66
19286;BME280;9776;50.798;6.430;2023-12-20T09:03:58;100321.19;;;7.70;73.57
19286;BME280;9776;50.798;6.430;2023-12-20T09:06:24;100314.56;;;7.76;73.36
19286;BME280;9776;50.798;6.430;2023-12-20T09:08:51;100314.84;;;7.82;73.23
19286;BME280;9776;50.798;6.430;2023-12-20T09:11:18;100316.25;;;7.86;73.30
19286;BME280;9776;50.798;6.430;2023-12-20T09:13:46;100309.31;;;7.85;73.08
19286;BME280;9776;50.798;6.430;2023-12-20T09:16:12;100316.81;;;7.90;73.05
19286;BME280;9776;50.798;6.430;2023-12-20T09:18:41;100321.56;;;7.96;72.95
19286;BME280;9776;50.798;6.430;2023-12-20T09:21:07;100319.88;;;7.95;72.89
19286;BME280;9776;50.798;6.430;2023-12-20T09:23:34;100320.03;;;7.93;73.02
19286;BME280;9776;50.798;6.430;2023-12-20T09:26:02;100314.31;;;7.88;73.10
19286;BME280;9776;50.798;6.430;2023-12-20T09:28:29;100315.56;;;7.84;73.30
19286;BME280;9776;50.798;6.430;2023-12-20T09:30:59;100308.94;;;7.90;72.98
19286;BME280;9776;50.798;6.430;2023-12-20T09:33:25;100310.72;;;7.89;72.96
19286;BME280;9776;50.798;6.430;2023-12-20T09:35:52;100315.72;;;7.92;73.18
19286;BME280;9776;50.798;6.430;2023-12-20T09:38:19;100293.03;;;7.91;72.91
19286;BME280;9776;50.798;6.430;2023-12-20T09:40:46;100294.09;;;7.79;73.02
19286;BME280;9776;50.798;6.430;2023-12-20T09:43:14;100290.91;;;7.76;73.19
19286;BME280;9776;50.798;6.430;2023-12-20T09:45:41;100291.72;;;7.76;73.00
19286;BME280;9776;50.798;6.430;2023-12-20T09:48:11;100309.59;;;7.82;73.09
19286;BME280;9776;50.798;6.430;2023-12-20T09:50:40;100320.28;;;7.90;72.72
19286;BME280;9776;50.798;6.430;2023-12-20T09:53:08;100309.06;;;7.88;72.63
19286;BME280;9776;50.798;6.430;2023-12-20T09:55:36;100307.94;;;7.81;72.59
19286;BME280;9776;50.798;6.430;2023-12-20T09:58:04;100310.25;;;7.75;72.75
19286;BME280;9776;50.798;6.430;2023-12-20T10:00:32;100316.09;;;7.78;72.71
19286;BME280;9776;50.798;6.430;2023-12-20T10:02:59;100306.44;;;7.88;72.58
19286;BME280;9776;50.798;6.430;2023-12-20T10:05:29;100310.78;;;7.99;72.02
19286;BME280;9776;50.798;6.430;2023-12-20T10:07:56;100313.81;;;8.04;71.99
19286;BME280;9776;50.798;6.430;2023-12-20T10:10:23;100322.81;;;8.02;72.06
19286;BME280;9776;50.798;6.430;2023-12-20T10:13:05;100315.19;;;7.98;72.03
19286;BME280;9776;50.798;6.430;2023-12-20T10:15:32;100310.25;;;8.05;72.00
19286;BME280;9776;50.798;6.430;2023-12-20T10:18:00;100300.56;;;8.15;71.56
19286;BME280;9776;50.798;6.430;2023-12-20T10:20:28;100296.19;;;8.25;71.41
19286;BME280;9776;50.798;6.430;2023-12-20T10:22:55;100298.44;;;8.30;71.59
19286;BME280;9776;50.798;6.430;2023-12-20T10:25:22;100279.88;;;8.31;71.17
19286;BME280;9776;50.798;6.430;2023-12-20T10:27:49;100273.53;;;8.43;70.96
19286;BME280;9776;50.798;6.430;2023-12-20T10:30:16;100266.75;;;8.50;70.87
19286;BME280;9776;50.798;6.430;2023-12-20T10:32:43;100275.91;;;8.66;70.44
19286;BME280;9776;50.798;6.430;2023-12-20T10:35:09;100266.47;;;8.63;70.23
19286;BME280;9776;50.798;6.430;2023-12-20T10:37:38;100271.03;;;8.61;70.55
19286;BME280;9776;50.798;6.430;2023-12-20T10:40:05;100268.56;;;8.60;70.34
19286;BME280;9776;50.798;6.430;2023-12-20T10:42:32;100267.47;;;8.62;70.25
19286;BME280;9776;50.798;6.430;2023-12-20T10:45:00;100267.31;;;8.64;70.22
19286;BME280;9776;50.798;6.430;2023-12-20T10:47:28;100254.56;;;8.69;70.12
19286;BME280;9776;50.798;6.430;2023-12-20T10:49:58;100248.50;;;8.68;70.07
19286;BME280;9776;50.798;6.430;2023-12-20T10:52:26;100254.72;;;8.67;69.98
19286;BME280;9776;50.798;6.430;2023-12-20T10:54:55;100256.09;;;8.71;69.90
19286;BME280;9776;50.798;6.430;2023-12-20T10:57:22;100259.41;;;8.73;70.01
19286;BME280;9776;50.798;6.430;2023-12-20T10:59:52;100269.66;;;8.76;69.75
19286;BME280;9776;50.798;6.430;2023-12-20T11:02:21;100273.66;;;8.80;69.67
19286;BME280;9776;50.798;6.430;2023-12-20T11:04:52;100268.56;;;8.88;69.43
19286;BME280;9776;50.798;6.430;2023-12-20T11:07:23;100270.34;;;8.97;69.38
19286;BME280;9776;50.798;6.430;2023-12-20T11:09:58;100271.88;;;8.90;69.46
19286;BME280;9776;50.798;6.430;2023-12-20T11:12:35;100273.81;;;8.88;69.21
19286;BME280;9776;50.798;6.430;2023-12-20T11:15:04;100284.47;;;8.87;69.41
19286;BME280;9776;50.798;6.430;2023-12-20T11:17:32;100286.97;;;8.79;69.70
19286;BME280;9776;50.798;6.430;2023-12-20T11:20:06;100286.97;;;8.79;69.47
19286;BME280;9776;50.798;6.430;2023-12-20T11:22:36;100291.00;;;8.83;69.46
19286;BME280;9776;50.798;6.430;2023-12-20T11:25:06;100283.22;;;8.81;69.56
19286;BME280;9776;50.798;6.430;2023-12-20T11:27:34;100273.38;;;8.83;69.57
19286;BME280;9776;50.798;6.430;2023-12-20T11:30:03;100267.59;;;8.80;69.37
19286;BME280;9776;50.798;6.430;2023-12-20T11:32:34;100265.53;;;8.74;69.38
19286;BME280;9776;50.798;6.430;2023-12-20T11:35:16;100256.38;;;8.68;69.67
19286;BME280;9776;50.798;6.430;2023-12-20T11:37:43;100261.50;;;8.70;69.75
19286;BME280;9776;50.798;6.430;2023-12-20T11:40:15;100251.53;;;8.73;69.52
19286;BME280;9776;50.798;6.430;2023-12-20T11:42:43;100250.69;;;8.73;69.46
19286;BME280;9776;50.798;6.430;2023-12-20T11:45:14;100243.06;;;8.79;69.21
19286;BME280;9776;50.798;6.430;2023-12-20T11:47:42;100256.91;;;8.81;69.33
19286;BME280;9776;50.798;6.430;2023-12-20T11:50:09;100246.22;;;8.92;68.87
19286;BME280;9776;50.798;6.430;2023-12-20T11:52:36;100246.06;;;9.03;68.77
19286;BME280;9776;50.798;6.430;2023-12-20T11:55:03;100246.63;;;9.07;68.78
19286;BME280;9776;50.798;6.430;2023-12-20T11:57:33;100249.97;;;9.09;68.68
19286;BME280;9776;50.798;6.430;2023-12-20T12:00:00;100251.78;;;9.08;68.59
19286;BME280;9776;50.798;6.430;2023-12-20T12:02:28;100247.47;;;9.07;68.78
19286;BME280;9776;50.798;6.430;2023-12-20T12:04:56;100232.78;;;9.05;68.76
19286;BME280;9776;50.798;6.430;2023-12-20T12:07:24;100230.00;;;9.06;68.60
19286;BME280;9776;50.798;6.430;2023-12-20T12:09:51;100224.22;;;9.03;68.52
19286;BME280;9776;50.798;6.430;2023-12-20T12:12:17;100234.06;;;8.91;68.84
19286;BME280;9776;50.798;6.430;2023-12-20T12:14:47;100229.75;;;8.90;68.95
19286;BME280;9776;50.798;6.430;2023-12-20T12:17:14;100230.03;;;8.87;68.82
19286;BME280;9776;50.798;6.430;2023-12-20T12:19:41;100226.44;;;8.88;68.82
19286;BME280;9776;50.798;6.430;2023-12-20T12:22:10;100225.63;;;8.78;69.12
19286;BME280;9776;50.798;6.430;2023-12-20T12:24:39;100212.63;;;8.77;69.04
19286;BME280;9776;50.798;6.430;2023-12-20T12:27:06;100212.34;;;8.80;68.97
19286;BME280;9776;50.798;6.430;2023-12-20T12:29:33;100209.81;;;8.78;68.94
19286;BME280;9776;50.798;6.430;2023-12-20T12:32:04;100202.50;;;8.82;69.05
19286;BME280;9776;50.798;6.430;2023-12-20T12:34:31;100203.56;;;8.89;68.93
19286;BME280;9776;50.798;6.430;2023-12-20T12:37:01;100199.84;;;8.91;68.87
19286;BME280;9776;50.798;6.430;2023-12-20T12:39:29;100212.00;;;8.92;68.79
19286;BME280;9776;50.798;6.430;2023-12-20T12:41:56;100202.72;;;8.98;68.85
19286;BME280;9776;50.798;6.430;2023-12-20T12:44:23;100201.22;;;8.95;68.68
19286;BME280;9776;50.798;6.430;2023-12-20T12:46:50;100197.59;;;8.96;68.93
19286;BME280;9776;50.798;6.430;2023-12-20T12:49:20;100191.50;;;8.96;68.88
19286;BME280;9776;50.798;6.430;2023-12-20T12:51:47;100189.84;;;8.95;68.84
19286;BME280;9776;50.798;6.430;2023-12-20T12:54:13;100175.03;;;8.94;69.06
19286;BME280;9776;50.798;6.430;2023-12-20T12:56:44;100179.19;;;8.87;69.05
19286;BME280;9776;50.798;6.430;2023-12-20T12:59:12;100177.69;;;8.84;69.08
19286;BME280;9776;50.798;6.430;2023-12-20T13:01:39;100181.44;;;8.91;69.18
19286;BME280;9776;50.798;6.430;2023-12-20T13:04:05;100185.13;;;8.89;69.34
19286;BME280;9776;50.798;6.430;2023-12-20T13:06:37;100182.50;;;8.89;69.39
19286;BME280;9776;50.798;6.430;2023-12-20T13:09:04;100183.50;;;8.88;69.54
19286;BME280;9776;50.798;6.430;2023-12-20T13:11:31;100186.25;;;8.96;69.55